Time;durP1;ratioP1;P1;durP2;ratioP2;P2;SDS_P1;SDS_P2;PMS_P1;PMS_P2;Temp;Humidity;BMP_temperature;BMP_pressure;BME280_temperature;BME280_humidity;BME280_pressure;Samples;Min_cycle;Max_cycle;Signal;HPM_P1;HPM_P2
2023/03/19 00:01:20;;;;;;;15.52;12.85;;;7.30;99.90;;;;;;5034910;28;20287;-75
2023/03/19 00:03:46;;;;;;;13.65;11.15;;;7.30;99.90;;;;;;5034503;28;20168;-75
2023/03/19 00:06:12;;;;;;;18.92;13.85;;;7.30;99.90;;;;;;5032034;28;20193;-75
2023/03/19 00:08:38;;;;;;;14.02;11.48;;;7.30;99.90;;;;;;5033643;28;20191;-75
2023/03/19 00:11:08;;;;;;;10.40;8.38;;;7.30;99.90;;;;;;5029510;28;20287;-75
2023/03/19 00:13:34;;;;;;;8.57;7.68;;;7.30;99.90;;;;;;5031556;28;20188;-75
2023/03/19 00:16:00;;;;;;;10.55;8.70;;;7.40;99.90;;;;;;5030095;28;20208;-74
2023/03/19 00:18:25;;;;;;;13.52;8.93;;;7.30;99.90;;;;;;5029617;28;20502;-75
2023/03/19 00:20:51;;;;;;;10.90;8.93;;;7.30;99.90;;;;;;5033505;28;20250;-75
2023/03/19 00:23:17;;;;;;;8.60;7.70;;;7.30;99.90;;;;;;5035943;28;20188;-75
2023/03/19 00:25:42;;;;;;;10.07;8.00;;;7.30;99.90;;;;;;5034523;28;20179;-76
2023/03/19 00:28:08;;;;;;;12.23;8.10;;;7.40;99.90;;;;;;5037192;28;20605;-74
2023/03/19 00:30:34;;;;;;;11.00;8.80;;;7.40;99.90;;;;;;5029332;28;20711;-75
2023/03/19 00:33:01;;;;;;;11.88;7.82;;;7.30;99.90;;;;;;5029566;28;20215;-75
2023/03/19 00:35:26;;;;;;;8.00;7.15;;;7.30;99.90;;;;;;5032449;28;20223;-75
2023/03/19 00:37:52;;;;;;;9.70;7.72;;;7.10;99.90;;;;;;5040662;28;20172;-74
2023/03/19 00:40:18;;;;;;;11.88;7.57;;;7.10;99.90;;;;;;5033735;28;20211;-75
2023/03/19 00:42:43;;;;;;;10.63;8.02;;;7.00;99.90;;;;;;5033117;28;20385;-75
2023/03/19 00:45:10;;;;;;;9.30;7.82;;;7.00;99.90;;;;;;5038113;28;20211;-75
2023/03/19 00:47:36;;;;;;;8.80;7.88;;;7.00;99.90;;;;;;5035594;28;20180;-75
2023/03/19 00:50:03;;;;;;;9.25;7.78;;;6.90;99.90;;;;;;5031568;28;20177;-75
2023/03/19 00:52:29;;;;;;;7.57;6.80;;;7.00;99.90;;;;;;5033446;28;20176;-75
2023/03/19 00:54:55;;;;;;;10.00;7.95;;;7.00;99.90;;;;;;5037794;28;20559;-75
2023/03/19 00:57:21;;;;;;;8.00;7.20;;;7.00;99.90;;;;;;5036536;28;20255;-74
2023/03/19 00:59:46;;;;;;;7.78;6.97;;;7.10;99.90;;;;;;5032771;28;20177;-74
2023/03/19 01:02:12;;;;;;;9.35;8.02;;;7.10;99.90;;;;;;5031911;28;20212;-74
2023/03/19 01:04:38;;;;;;;7.45;6.75;;;7.00;99.90;;;;;;5026470;28;20176;-75
2023/03/19 01:07:04;;;;;;;11.02;8.38;;;6.90;99.90;;;;;;5035903;28;20303;-75
2023/03/19 01:09:29;;;;;;;8.82;7.25;;;6.90;99.90;;;;;;5030263;28;20191;-74
2023/03/19 01:11:55;;;;;;;9.60;8.00;;;6.90;99.90;;;;;;5033954;28;20653;-74
2023/03/19 01:14:21;;;;;;;8.80;7.90;;;7.00;99.90;;;;;;5031809;28;20185;-75
2023/03/19 01:16:47;;;;;;;8.85;7.47;;;6.90;99.90;;;;;;5033733;28;20206;-75
2023/03/19 01:19:13;;;;;;;8.75;7.82;;;6.90;99.90;;;;;;5028066;28;20196;-75
2023/03/19 01:21:38;;;;;;;15.50;7.53;;;6.80;99.90;;;;;;5029145;28;20290;-75
2023/03/19 01:24:05;;;;;;;8.35;7.43;;;6.60;99.90;;;;;;5028331;28;20606;-75
2023/03/19 01:26:30;;;;;;;12.30;8.40;;;6.60;99.90;;;;;;5035564;28;20624;-75
2023/03/19 01:28:57;;;;;;;9.00;7.55;;;6.50;99.90;;;;;;5020394;28;20472;-75
2023/03/19 01:31:22;;;;;;;10.95;8.40;;;6.60;99.90;;;;;;5030649;28;20303;-74
2023/03/19 01:33:48;;;;;;;8.90;8.00;;;6.50;99.90;;;;;;5032913;28;20270;-74
2023/03/19 01:36:14;;;;;;;11.55;7.53;;;6.50;99.90;;;;;;5029443;28;20210;-74
2023/03/19 01:38:39;;;;;;;9.82;7.82;;;6.50;99.90;;;;;;5024524;28;20595;-75
2023/03/19 01:41:05;;;;;;;8.65;7.38;;;6.50;99.90;;;;;;5033151;28;20275;-74
2023/03/19 01:43:31;;;;;;;8.65;6.63;;;6.60;99.90;;;;;;5029923;28;20185;-78
2023/03/19 01:46:27;;;;;;;9.75;7.68;;;6.60;99.90;;;;;;5028438;28;20184;-75
2023/03/19 01:49:05;;;;;;;8.80;7.90;;;6.60;99.90;;;;;;5027618;28;20682;-75
2023/03/19 01:51:36;;;;;;;10.70;7.47;;;6.60;99.90;;;;;;5031400;28;20200;-75
2023/03/19 01:54:06;;;;;;;8.82;7.80;;;6.60;99.90;;;;;;5032634;28;20202;-75
2023/03/19 01:56:34;;;;;;;8.55;7.68;;;6.50;99.90;;;;;;5031488;28;20214;-75
2023/03/19 01:59:11;;;;;;;11.32;7.85;;;6.40;99.90;;;;;;5032935;28;20263;-73
2023/03/19 02:01:47;;;;;;;9.65;7.72;;;6.40;99.90;;;;;;5024571;28;20252;-75
2023/03/19 02:04:13;;;;;;;8.93;7.57;;;6.40;99.90;;;;;;5027826;28;20177;-74
2023/03/19 02:06:40;;;;;;;8.20;7.40;;;6.40;99.90;;;;;;5028229;28;20176;-74
2023/03/19 02:09:07;;;;;;;10.65;8.48;;;6.40;99.90;;;;;;5023447;28;20641;-74
2023/03/19 02:11:33;;;;;;;7.90;6.95;;;6.40;99.90;;;;;;5028183;28;20973;-75
2023/03/19 02:13:58;;;;;;;8.35;7.50;;;6.40;99.90;;;;;;5030816;28;20187;-75
2023/03/19 02:16:25;;;;;;;10.10;7.50;;;6.30;99.90;;;;;;5032018;28;20705;-75
2023/03/19 02:18:52;;;;;;;10.20;8.98;;;6.30;99.90;;;;;;5024760;28;20188;-75
2023/03/19 02:21:20;;;;;;;15.90;8.85;;;6.30;99.90;;;;;;5023033;28;20200;-74
2023/03/19 02:24:16;;;;;;;11.70;8.45;;;6.10;99.90;;;;;;5034491;28;20517;-75
2023/03/19 02:26:43;;;;;;;8.38;7.18;;;6.10;99.90;;;;;;5031760;28;20261;-75
2023/03/19 02:29:09;;;;;;;11.27;8.32;;;6.20;99.90;;;;;;5026190;28;20180;-75
2023/03/19 02:31:36;;;;;;;8.00;7.18;;;6.20;99.90;;;;;;5038079;28;20212;-74
2023/03/19 02:34:09;;;;;;;11.00;7.40;;;6.20;99.90;;;;;;5027356;28;20200;-74
2023/03/19 02:36:41;;;;;;;9.57;8.30;;;6.20;99.90;;;;;;5039085;28;20218;-75
2023/03/19 02:39:37;;;;;;;12.50;7.32;;;6.20;99.90;;;;;;5028849;28;20184;-75
2023/03/19 02:42:04;;;;;;;9.45;7.75;;;6.20;99.90;;;;;;5035956;28;20211;-74
2023/03/19 02:44:30;;;;;;;10.32;7.55;;;6.20;99.90;;;;;;5030045;28;20180;-75
2023/03/19 02:46:56;;;;;;;9.93;7.72;;;6.30;99.90;;;;;;5029601;28;20177;-74
2023/03/19 02:49:22;;;;;;;7.47;6.82;;;6.20;99.90;;;;;;5029482;28;20259;-74
2023/03/19 02:51:48;;;;;;;7.88;7.15;;;6.10;99.90;;;;;;5035319;28;20285;-75
2023/03/19 02:54:13;;;;;;;8.32;7.50;;;6.10;99.90;;;;;;5033636;28;20573;-74
2023/03/19 02:56:39;;;;;;;9.77;7.47;;;6.00;99.90;;;;;;5029638;28;20208;-75
2023/03/19 02:59:05;;;;;;;10.60;8.27;;;5.90;99.90;;;;;;5032673;28;20181;-74
2023/03/19 03:01:31;;;;;;;7.38;6.70;;;5.90;99.90;;;;;;5034663;28;20217;-75
2023/03/19 03:03:56;;;;;;;8.68;7.05;;;5.90;99.90;;;;;;5032471;28;20748;-75
2023/03/19 03:06:22;;;;;;;10.02;7.50;;;6.00;99.90;;;;;;5032999;28;20193;-75
2023/03/19 03:08:47;;;;;;;9.38;7.13;;;6.10;99.90;;;;;;5028420;28;20196;-75
2023/03/19 03:11:13;;;;;;;7.70;7.00;;;6.20;99.90;;;;;;5027047;28;20223;-75
2023/03/19 03:13:38;;;;;;;9.50;7.75;;;6.30;99.90;;;;;;5033337;28;20745;-75
2023/03/19 03:16:04;;;;;;;16.83;8.23;;;6.30;99.90;;;;;;5029929;28;20200;-74
2023/03/19 03:18:30;;;;;;;8.82;7.93;;;6.20;99.90;;;;;;5026811;28;20224;-75
2023/03/19 03:20:56;;;;;;;8.18;7.28;;;6.10;99.90;;;;;;5025395;28;20201;-75
2023/03/19 03:23:21;;;;;;;8.82;7.90;;;6.10;99.90;;;;;;5042126;28;20204;-74
2023/03/19 03:25:51;;;;;;;9.10;7.53;;;6.10;99.90;;;;;;5026577;28;20180;-74
2023/03/19 03:28:17;;;;;;;10.05;8.15;;;6.10;99.90;;;;;;5028406;28;20188;-74
2023/03/19 03:30:44;;;;;;;10.85;7.55;;;6.00;99.90;;;;;;5030846;28;20219;-75
2023/03/19 03:33:09;;;;;;;12.20;8.43;;;6.00;99.90;;;;;;5036339;28;20172;-75
2023/03/19 03:35:35;;;;;;;11.75;7.82;;;6.20;99.90;;;;;;5035526;28;20212;-74
2023/03/19 03:38:02;;;;;;;10.25;7.38;;;6.20;99.90;;;;;;5033160;28;20177;-74
2023/03/19 03:40:28;;;;;;;8.75;7.85;;;6.10;99.90;;;;;;5031264;28;20774;-74
2023/03/19 03:42:54;;;;;;;8.80;7.90;;;6.00;99.90;;;;;;5030260;28;20173;-75
2023/03/19 03:45:19;;;;;;;9.95;7.22;;;6.00;99.90;;;;;;5031602;28;20203;-74
2023/03/19 03:47:45;;;;;;;9.25;7.65;;;6.00;99.90;;;;;;5029720;28;20195;-74
2023/03/19 03:50:11;;;;;;;8.48;7.50;;;5.90;99.90;;;;;;5032125;28;20196;-75
2023/03/19 03:52:38;;;;;;;9.55;7.57;;;6.00;99.90;;;;;;5031898;28;20185;-74
2023/03/19 03:55:04;;;;;;;8.07;6.85;;;6.10;99.90;;;;;;5025506;28;20197;-74
2023/03/19 03:57:30;;;;;;;7.97;7.22;;;6.20;99.90;;;;;;5034176;28;20173;-75
2023/03/19 03:59:55;;;;;;;10.55;7.63;;;6.10;99.90;;;;;;5033558;28;20518;-74
2023/03/19 04:02:21;;;;;;;10.10;7.95;;;6.10;99.90;;;;;;5030841;28;20217;-75
2023/03/19 04:04:47;;;;;;;12.13;7.20;;;6.00;99.90;;;;;;5035791;28;20699;-74
2023/03/19 04:07:13;;;;;;;9.32;7.10;;;6.00;99.90;;;;;;5030541;28;20180;-75
2023/03/19 04:09:38;;;;;;;7.85;6.90;;;6.10;99.90;;;;;;5028294;28;20185;-75
2023/03/19 04:12:04;;;;;;;9.27;7.28;;;6.10;99.90;;;;;;5030936;28;20683;-74
2023/03/19 04:14:30;;;;;;;8.57;6.78;;;6.20;99.90;;;;;;5036639;28;20217;-74
2023/03/19 04:16:56;;;;;;;8.05;7.25;;;6.20;99.90;;;;;;5036742;28;20207;-75
2023/03/19 04:19:21;;;;;;;8.15;7.28;;;6.20;99.90;;;;;;5032318;28;20719;-75
2023/03/19 04:21:47;;;;;;;8.25;7.45;;;6.20;99.90;;;;;;5028594;28;20287;-75
2023/03/19 04:24:13;;;;;;;7.90;6.78;;;6.30;99.90;;;;;;5029198;28;20529;-74
2023/03/19 04:26:39;;;;;;;8.13;6.63;;;6.40;99.90;;;;;;5042074;28;20191;-74
2023/03/19 04:29:07;;;;;;;7.90;7.20;;;6.40;99.90;;;;;;5026600;28;20647;-74
2023/03/19 04:31:33;;;;;;;8.00;7.07;;;6.40;99.90;;;;;;5029554;28;20243;-74
2023/03/19 04:33:59;;;;;;;9.60;6.93;;;6.30;99.90;;;;;;5029925;28;20227;-74
2023/03/19 04:36:25;;;;;;;8.45;7.32;;;6.30;99.90;;;;;;5022970;28;20774;-75
2023/03/19 04:38:51;;;;;;;7.40;6.78;;;6.30;99.90;;;;;;5028443;28;20219;-74
2023/03/19 04:41:17;;;;;;;8.45;7.57;;;6.30;99.90;;;;;;5031966;28;20197;-75
2023/03/19 04:43:42;;;;;;;9.32;7.38;;;6.30;99.90;;;;;;5033394;28;20177;-75
2023/03/19 04:46:08;;;;;;;9.27;7.43;;;6.30;99.90;;;;;;5027118;28;20187;-75
2023/03/19 04:48:38;;;;;;;9.27;7.63;;;6.30;99.90;;;;;;5040304;28;20271;-75
2023/03/19 04:51:07;;;;;;;8.82;7.55;;;6.40;99.90;;;;;;5031693;28;20229;-74
2023/03/19 04:53:33;;;;;;;8.40;7.68;;;6.40;99.90;;;;;;5027533;28;20667;-75
2023/03/19 04:55:59;;;;;;;8.70;6.38;;;6.40;99.90;;;;;;5033121;28;20292;-74
2023/03/19 04:58:25;;;;;;;8.85;7.53;;;6.40;99.90;;;;;;5038257;28;20212;-74
2023/03/19 05:00:51;;;;;;;8.07;7.28;;;6.50;99.90;;;;;;5031758;28;20293;-75
2023/03/19 05:03:16;;;;;;;9.43;7.32;;;6.50;99.90;;;;;;5034478;28;20559;-75
2023/03/19 05:05:42;;;;;;;9.55;6.93;;;6.50;99.90;;;;;;5036335;28;20184;-74
2023/03/19 05:08:08;;;;;;;8.90;8.00;;;6.50;99.90;;;;;;5026896;28;20177;-74
2023/03/19 05:10:36;;;;;;;7.95;7.13;;;6.50;99.90;;;;;;5037026;28;20277;-75
2023/03/19 05:13:02;;;;;;;10.77;7.70;;;6.50;99.90;;;;;;5038669;28;20284;-74
2023/03/19 05:15:27;;;;;;;8.20;7.28;;;6.50;99.90;;;;;;5038387;28;20243;-75
2023/03/19 05:17:53;;;;;;;9.70;8.70;;;6.50;99.90;;;;;;5035477;28;20556;-74
2023/03/19 05:20:19;;;;;;;8.45;7.40;;;6.50;99.90;;;;;;5030093;28;20245;-75
2023/03/19 05:22:48;;;;;;;9.43;7.88;;;6.50;99.90;;;;;;5039150;28;20734;-75
2023/03/19 05:25:14;;;;;;;12.25;7.95;;;6.50;99.90;;;;;;5025212;28;20196;-75
2023/03/19 05:27:39;;;;;;;9.20;7.53;;;6.50;99.90;;;;;;5034388;28;20183;-74
2023/03/19 05:30:06;;;;;;;8.20;7.35;;;6.50;99.90;;;;;;5041058;28;20202;-75
2023/03/19 05:32:32;;;;;;;12.75;8.13;;;6.60;99.90;;;;;;5034941;28;21215;-75
2023/03/19 05:34:57;;;;;;;7.80;6.90;;;6.50;99.90;;;;;;5033201;28;20208;-76
2023/03/19 05:37:23;;;;;;;9.90;7.78;;;6.60;99.90;;;;;;5033248;28;20212;-76
2023/03/19 05:39:50;;;;;;;9.65;7.25;;;6.60;99.90;;;;;;5034260;28;20263;-76
2023/03/19 05:42:16;;;;;;;8.55;7.75;;;6.60;99.90;;;;;;5039978;28;20186;-76
2023/03/19 05:44:41;;;;;;;8.55;7.10;;;6.70;99.90;;;;;;5034346;28;20191;-76
2023/03/19 05:47:09;;;;;;;10.48;8.07;;;6.60;99.90;;;;;;5037566;28;20212;-76
2023/03/19 05:49:35;;;;;;;8.18;7.20;;;6.70;99.90;;;;;;5032215;28;20183;-76
2023/03/19 05:52:00;;;;;;;10.00;7.18;;;6.80;99.90;;;;;;5040843;28;20210;-76
2023/03/19 05:54:26;;;;;;;7.68;7.00;;;6.90;99.90;;;;;;5033674;28;20191;-76
2023/03/19 05:56:51;;;;;;;8.73;7.38;;;7.00;99.90;;;;;;5033847;28;20212;-76
2023/03/19 05:59:17;;;;;;;10.23;7.95;;;7.00;99.90;;;;;;5027778;28;20177;-76
2023/03/19 06:01:43;;;;;;;9.05;8.23;;;7.10;99.90;;;;;;5031571;28;20255;-76
2023/03/19 06:04:08;;;;;;;8.48;7.63;;;7.10;99.90;;;;;;5031951;28;20186;-76
2023/03/19 06:06:34;;;;;;;9.95;7.78;;;7.20;99.90;;;;;;5036618;28;20253;-76
2023/03/19 06:09:00;;;;;;;10.68;7.53;;;7.20;99.90;;;;;;5038670;28;20254;-76
2023/03/19 06:11:26;;;;;;;8.85;7.68;;;7.10;99.90;;;;;;5031476;28;20207;-76
2023/03/19 06:13:51;;;;;;;7.93;7.13;;;7.20;99.90;;;;;;5039440;28;20184;-76
2023/03/19 06:16:17;;;;;;;8.52;7.50;;;7.40;99.90;;;;;;5029411;28;20200;-76
2023/03/19 06:18:44;;;;;;;7.43;6.72;;;7.40;99.90;;;;;;5023360;28;20192;-76
2023/03/19 06:21:10;;;;;;;8.32;7.43;;;7.50;99.90;;;;;;5030831;28;20210;-75
2023/03/19 06:23:35;;;;;;;9.07;6.95;;;7.50;99.90;;;;;;5032061;28;20255;-76
2023/03/19 06:26:01;;;;;;;9.52;8.10;;;7.50;99.90;;;;;;5032591;28;20173;-76
2023/03/19 06:28:26;;;;;;;11.70;7.85;;;7.70;99.90;;;;;;5027853;28;20235;-76
2023/03/19 06:30:54;;;;;;;8.20;7.03;;;7.80;99.90;;;;;;5039371;28;20686;-76
2023/03/19 06:33:21;;;;;;;10.75;7.13;;;7.90;99.90;;;;;;5042121;28;20176;-76
2023/03/19 06:35:47;;;;;;;9.95;7.63;;;8.10;99.90;;;;;;5037390;28;20235;-76
2023/03/19 06:38:13;;;;;;;7.85;7.03;;;8.20;99.90;;;;;;5035016;28;20183;-76
2023/03/19 06:40:39;;;;;;;8.60;7.80;;;8.20;99.90;;;;;;5030284;28;20196;-76
2023/03/19 06:43:04;;;;;;;10.70;7.63;;;8.30;99.90;;;;;;5036124;28;20666;-76
2023/03/19 06:45:30;;;;;;;8.60;7.70;;;8.40;99.90;;;;;;5030358;28;20187;-76
2023/03/19 06:47:56;;;;;;;10.30;6.72;;;8.40;99.90;;;;;;5028009;28;20185;-76
2023/03/19 06:50:22;;;;;;;8.65;7.85;;;8.50;99.90;;;;;;5039932;28;20294;-76
2023/03/19 06:52:48;;;;;;;9.07;8.10;;;8.50;99.90;;;;;;5029419;28;20192;-76
2023/03/19 06:55:13;;;;;;;9.95;7.72;;;8.50;99.90;;;;;;5033509;28;20210;-78
2023/03/19 06:57:39;;;;;;;8.55;6.85;;;8.50;99.90;;;;;;5030348;28;20172;-76
2023/03/19 07:00:06;;;;;;;8.07;7.28;;;8.50;99.90;;;;;;5031530;28;20248;-76
2023/03/19 07:02:32;;;;;;;8.93;7.90;;;8.60;99.90;;;;;;5032420;28;20180;-75
2023/03/19 07:04:57;;;;;;;11.23;7.97;;;8.70;99.90;;;;;;5035026;28;20238;-76
2023/03/19 07:07:23;;;;;;;8.07;7.22;;;8.60;99.90;;;;;;5033328;28;20188;-75
2023/03/19 07:09:48;;;;;;;10.80;7.88;;;8.70;99.90;;;;;;5033989;28;20374;-77
2023/03/19 07:12:14;;;;;;;12.73;7.45;;;8.60;99.90;;;;;;5033467;28;20215;-75
2023/03/19 07:14:40;;;;;;;8.50;7.40;;;8.70;99.90;;;;;;5030990;28;20691;-76
2023/03/19 07:17:05;;;;;;;9.30;7.78;;;8.70;99.90;;;;;;5039041;28;20177;-75
2023/03/19 07:19:31;;;;;;;8.85;7.50;;;8.60;99.90;;;;;;5030758;28;20195;-75
2023/03/19 07:21:57;;;;;;;7.60;6.82;;;8.60;99.90;;;;;;5038741;28;20199;-75
2023/03/19 07:24:22;;;;;;;8.25;6.85;;;8.70;99.90;;;;;;5033369;28;20184;-75
2023/03/19 07:26:48;;;;;;;9.55;7.00;;;8.70;99.90;;;;;;5027826;28;20712;-77
2023/03/19 07:29:14;;;;;;;9.27;8.05;;;8.70;99.90;;;;;;5036042;28;20230;-75
2023/03/19 07:31:39;;;;;;;9.43;7.53;;;8.90;99.90;;;;;;5042901;28;20200;-76
2023/03/19 07:34:05;;;;;;;7.97;7.18;;;9.00;99.90;;;;;;5039410;28;20314;-76
2023/03/19 07:36:31;;;;;;;9.52;7.57;;;9.20;99.90;;;;;;5036526;28;20199;-75
2023/03/19 07:38:57;;;;;;;10.55;7.55;;;9.40;99.90;;;;;;5041013;28;20188;-75
2023/03/19 07:41:22;;;;;;;9.45;7.75;;;9.50;99.90;;;;;;5042548;28;20254;-76
2023/03/19 07:43:48;;;;;;;9.43;7.75;;;9.70;99.90;;;;;;5037203;28;20574;-75
2023/03/19 07:46:13;;;;;;;9.70;7.88;;;9.80;99.90;;;;;;5036972;28;20233;-75
2023/03/19 07:48:39;;;;;;;11.68;9.00;;;10.00;99.90;;;;;;5037198;28;20184;-76
2023/03/19 07:51:06;;;;;;;9.38;7.95;;;10.10;99.90;;;;;;5037979;28;20207;-76
2023/03/19 07:53:31;;;;;;;9.30;8.43;;;10.20;99.90;;;;;;5035270;28;20268;-75
2023/03/19 07:55:57;;;;;;;9.27;8.18;;;10.20;99.90;;;;;;5033332;28;20287;-76
2023/03/19 07:58:22;;;;;;;10.05;8.43;;;10.40;99.90;;;;;;5031384;28;20269;-76
2023/03/19 08:00:48;;;;;;;9.63;8.15;;;10.60;99.90;;;;;;5032616;28;20239;-75
2023/03/19 08:03:14;;;;;;;9.38;7.78;;;10.70;99.90;;;;;;5026942;28;20177;-75
2023/03/19 08:05:40;;;;;;;8.45;7.68;;;10.80;99.90;;;;;;5034141;28;20180;-75
2023/03/19 08:08:06;;;;;;;9.95;8.35;;;10.80;99.90;;;;;;5039838;28;20176;-75
2023/03/19 08:10:32;;;;;;;10.10;8.27;;;11.00;99.90;;;;;;5034524;28;20618;-76
2023/03/19 08:12:58;;;;;;;11.55;7.85;;;11.20;99.90;;;;;;5043804;28;20181;-76
2023/03/19 08:15:23;;;;;;;9.55;8.65;;;11.50;99.90;;;;;;5033027;28;20229;-78
2023/03/19 08:17:57;;;;;;;11.63;8.43;;;11.70;99.90;;;;;;5039432;28;20196;-76
2023/03/19 08:20:22;;;;;;;10.05;8.63;;;11.90;99.90;;;;;;5035234;28;20213;-76
2023/03/19 08:22:49;;;;;;;10.75;9.25;;;12.10;99.90;;;;;;5038337;28;20722;-75
2023/03/19 08:25:15;;;;;;;10.27;9.30;;;12.40;99.90;;;;;;5036249;28;20271;-77
2023/03/19 08:27:41;;;;;;;9.82;8.90;;;12.70;99.90;;;;;;5031585;28;20279;-76
2023/03/19 08:30:09;;;;;;;10.85;9.75;;;13.00;99.90;;;;;;5036359;28;20928;-75
2023/03/19 08:32:35;;;;;;;13.48;9.32;;;13.10;99.90;;;;;;5034691;28;20188;-76
2023/03/19 08:35:01;;;;;;;10.10;8.38;;;13.40;99.90;;;;;;5035991;28;20651;-76
2023/03/19 08:37:27;;;;;;;9.75;8.77;;;13.70;99.90;;;;;;5032780;28;20183;-76
2023/03/19 08:39:52;;;;;;;10.45;9.13;;;13.90;99.90;;;;;;5036000;28;20175;-76
2023/03/19 08:42:19;;;;;;;9.77;8.70;;;14.10;99.90;;;;;;5039801;28;20683;-76
2023/03/19 08:44:44;;;;;;;8.55;7.40;;;14.60;99.90;;;;;;5028596;28;20266;-76
2023/03/19 08:47:11;;;;;;;9.90;8.50;;;15.20;99.90;;;;;;5030915;28;20212;-76
2023/03/19 08:49:36;;;;;;;10.13;8.30;;;15.80;99.90;;;;;;5028683;28;20236;-76
2023/03/19 08:52:03;;;;;;;10.57;8.85;;;16.30;99.90;;;;;;5030034;28;20596;-75
2023/03/19 08:54:28;;;;;;;8.98;8.07;;;16.70;99.90;;;;;;5031056;28;20261;-78
2023/03/19 08:56:54;;;;;;;9.57;8.27;;;17.20;99.50;;;;;;5028567;28;20236;-76
2023/03/19 08:59:20;;;;;;;10.00;8.43;;;17.70;97.50;;;;;;5028541;28;20181;-76
2023/03/19 09:01:49;;;;;;;9.75;8.75;;;18.00;95.70;;;;;;5036327;28;20192;-77
2023/03/19 09:04:15;;;;;;;8.63;7.82;;;18.30;94.10;;;;;;5033690;28;20177;-76
2023/03/19 09:06:40;;;;;;;9.18;8.27;;;18.50;93.00;;;;;;5029006;28;20186;-76
2023/03/19 09:09:06;;;;;;;9.00;8.10;;;18.60;91.70;;;;;;5032950;28;20183;-76
2023/03/19 09:11:31;;;;;;;10.13;8.23;;;18.60;91.60;;;;;;5029314;28;20205;-77
2023/03/19 09:13:57;;;;;;;8.52;7.53;;;18.60;91.30;;;;;;5035992;28;20188;-76
2023/03/19 09:16:24;;;;;;;8.70;7.90;;;18.60;91.00;;;;;;5033925;28;20204;-76
2023/03/19 09:18:50;;;;;;;8.75;7.88;;;18.30;90.70;;;;;;5025448;28;20217;-77
2023/03/19 09:21:16;;;;;;;10.00;7.90;;;17.80;90.90;;;;;;5037982;28;20598;-78
2023/03/19 09:23:41;;;;;;;8.63;7.72;;;17.60;91.80;;;;;;5029901;28;20570;-76
2023/03/19 09:26:07;;;;;;;7.95;7.20;;;17.80;91.70;;;;;;5034015;28;20184;-76
2023/03/19 09:28:33;;;;;;;8.68;7.70;;;18.10;90.90;;;;;;5030558;28;20215;-76
2023/03/19 09:30:59;;;;;;;9.73;7.93;;;18.60;90.30;;;;;;5037553;28;20287;-76
2023/03/19 09:33:25;;;;;;;8.13;7.38;;;19.00;89.00;;;;;;5032581;28;20256;-76
2023/03/19 09:35:52;;;;;;;8.10;7.03;;;19.70;87.30;;;;;;5036080;28;20229;-79
2023/03/19 09:38:19;;;;;;;8.18;7.32;;;20.30;85.30;;;;;;5031010;28;20208;-78
2023/03/19 09:40:48;;;;;;;9.25;7.22;;;20.70;83.20;;;;;;5031926;28;20253;-76
2023/03/19 09:43:36;;;;;;;8.77;6.90;;;20.60;80.90;;;;;;5036557;28;20179;-76
2023/03/19 09:46:09;;;;;;;8.68;6.78;;;20.20;81.20;;;;;;5022093;28;20181;-76
2023/03/19 09:48:42;;;;;;;7.40;6.65;;;20.10;82.60;;;;;;5033822;28;20230;-76
2023/03/19 09:51:16;;;;;;;7.70;7.00;;;20.00;81.80;;;;;;5034687;28;20188;-76
2023/03/19 09:53:49;;;;;;;7.63;6.93;;;19.50;81.50;;;;;;5030260;28;20176;-76
2023/03/19 09:56:15;;;;;;;6.80;6.13;;;19.10;83.70;;;;;;5030799;28;20211;-77
2023/03/19 09:58:41;;;;;;;9.38;7.25;;;19.00;84.40;;;;;;5036751;28;20176;-76
2023/03/19 10:01:28;;;;;;;6.60;5.22;;;18.70;84.70;;;;;;5032992;28;20703;-76
2023/03/19 10:04:23;;;;;;;7.80;5.05;;;18.00;87.10;;;;;;5031387;28;20180;-76
2023/03/19 10:06:56;;;;;;;5.88;5.28;;;17.50;89.60;;;;;;5043200;28;20176;-78
2023/03/19 10:09:41;;;;;;;7.20;4.72;;;17.30;90.40;;;;;;5038605;28;20177;-76
2023/03/19 10:12:44;;;;;;;7.00;4.20;;;17.00;91.30;;;;;;5032201;28;20204;-76
2023/03/19 10:15:28;;;;;;;5.15;3.85;;;16.50;93.00;;;;;;5022893;28;20201;-75
2023/03/19 10:18:04;;;;;;;6.63;4.00;;;15.80;96.90;;;;;;5034492;28;20274;-75
2023/03/19 10:20:37;;;;;;;5.55;3.53;;;15.30;99.90;;;;;;5029283;28;20204;-76
2023/03/19 10:23:20;;;;;;;3.22;3.00;;;14.80;99.90;;;;;;5041476;28;20263;-76
2023/03/19 10:25:46;;;;;;;2.80;2.60;;;14.20;99.90;;;;;;5040687;28;20172;-76
2023/03/19 10:28:17;;;;;;;4.07;2.85;;;13.80;99.90;;;;;;5027459;28;20276;-76
2023/03/19 10:30:49;;;;;;;3.05;2.65;;;13.30;99.90;;;;;;5030743;28;20191;-76
2023/03/19 10:33:22;;;;;;;3.35;2.55;;;12.90;99.90;;;;;;5036092;28;20183;-76
2023/03/19 10:35:57;;;;;;;2.70;2.50;;;12.30;99.90;;;;;;5029463;28;20234;-75
2023/03/19 10:38:25;;;;;;;2.67;2.47;;;11.80;99.90;;;;;;5032179;28;20707;-76
2023/03/19 10:41:03;;;;;;;5.70;3.13;;;11.50;99.90;;;;;;5035103;28;20196;-76
2023/03/19 10:43:30;;;;;;;3.35;2.58;;;11.30;99.90;;;;;;5033810;28;20185;-76
2023/03/19 10:45:57;;;;;;;2.60;2.40;;;11.30;99.90;;;;;;5035866;28;20192;-76
2023/03/19 10:48:25;;;;;;;2.83;2.63;;;11.20;99.90;;;;;;5035019;28;20196;-76
2023/03/19 10:51:03;;;;;;;3.10;2.80;;;11.30;99.90;;;;;;5021792;28;20201;-75
2023/03/19 10:53:34;;;;;;;3.85;3.15;;;11.40;99.90;;;;;;5027463;28;20215;-76
2023/03/19 10:56:23;;;;;;;5.22;2.90;;;11.70;99.90;;;;;;5036042;28;20254;-76
2023/03/19 10:59:02;;;;;;;2.90;2.60;;;12.00;99.90;;;;;;5032739;28;20181;-76
2023/03/19 11:01:36;;;;;;;2.83;2.60;;;12.50;99.90;;;;;;5036396;28;20626;-75
2023/03/19 11:04:13;;;;;;;5.85;3.20;;;12.90;99.90;;;;;;5034764;28;20176;-76
2023/03/19 11:06:39;;;;;;;3.65;2.40;;;13.30;99.90;;;;;;5038866;28;20183;-75
2023/03/19 11:09:08;;;;;;;2.50;2.22;;;13.60;99.90;;;;;;5030747;28;20548;-75
2023/03/19 11:11:45;;;;;;;3.10;2.40;;;13.90;99.90;;;;;;5031546;28;20247;-75
2023/03/19 11:14:18;;;;;;;1.90;1.80;;;14.20;99.90;;;;;;5035475;28;20180;-75
2023/03/19 11:16:52;;;;;;;3.67;2.30;;;14.60;99.90;;;;;;5039557;28;20230;-75
2023/03/19 11:19:21;;;;;;;2.35;2.15;;;15.10;99.90;;;;;;5030277;28;20235;-79
2023/03/19 11:22:35;;;;;;;2.28;2.15;;;15.60;99.90;;;;;;5029145;28;20218;-75
2023/03/19 11:25:27;;;;;;;2.22;1.92;;;15.80;99.90;;;;;;5011268;28;20556;-75
2023/03/19 11:28:11;;;;;;;2.45;1.98;;;15.80;99.90;;;;;;5029547;28;20219;-75
2023/03/19 11:30:53;;;;;;;2.75;2.00;;;15.60;99.90;;;;;;5034822;28;20237;-75
2023/03/19 11:33:42;;;;;;;2.40;2.20;;;15.50;99.90;;;;;;5038683;28;20607;-75
2023/03/19 11:36:32;;;;;;;2.35;2.15;;;15.60;99.90;;;;;;5034012;28;20212;-79
2023/03/19 11:39:03;;;;;;;2.67;2.20;;;15.80;99.90;;;;;;5032576;28;20207;-75
2023/03/19 11:41:55;;;;;;;2.17;2.08;;;16.30;99.90;;;;;;5033709;28;20199;-75
2023/03/19 11:44:39;;;;;;;2.15;2.03;;;17.00;99.90;;;;;;5034732;28;20188;-75
2023/03/19 11:47:14;;;;;;;2.38;2.25;;;17.60;99.90;;;;;;5034200;28;20266;-75
2023/03/19 11:49:45;;;;;;;2.22;2.03;;;18.00;99.90;;;;;;5039700;28;20184;-75
2023/03/19 11:52:23;;;;;;;2.15;2.03;;;18.60;99.90;;;;;;5029219;28;20225;-75
2023/03/19 11:54:49;;;;;;;2.00;1.90;;;18.80;99.90;;;;;;5035213;28;20180;-75
2023/03/19 11:57:46;;;;;;;2.20;2.10;;;19.10;99.90;;;;;;5034091;28;20180;-75
2023/03/19 12:00:15;;;;;;;2.00;1.90;;;19.30;99.90;;;;;;5038182;28;20271;-75
2023/03/19 12:03:06;;;;;;;3.13;1.92;;;19.50;99.90;;;;;;5035769;28;20187;-75
2023/03/19 12:05:50;;;;;;;3.20;1.98;;;19.10;99.90;;;;;;5036684;28;20174;-75
2023/03/19 12:08:44;;;;;;;2.20;2.00;;;19.80;99.90;;;;;;5034513;28;20205;-76
2023/03/19 12:11:18;;;;;;;2.28;1.77;;;21.10;98.00;;;;;;5027948;28;20192;-75
2023/03/19 12:13:50;;;;;;;2.35;2.15;;;22.00;94.90;;;;;;5038715;28;20182;-75
2023/03/19 12:16:35;;;;;;;2.70;2.05;;;22.90;94.10;;;;;;5033610;28;20265;-76
2023/03/19 12:19:42;;;;;;;2.30;1.75;;;24.40;91.50;;;;;;5029062;28;20185;-74
2023/03/19 12:22:37;;;;;;;1.80;1.70;;;26.20;84.90;;;;;;5015587;28;20197;-74
2023/03/19 12:25:49;;;;;;;1.80;1.70;;;27.20;79.20;;;;;;5014341;28;20180;-74
2023/03/19 12:28:22;;;;;;;1.85;1.75;;;27.10;74.80;;;;;;4972367;28;20205;-73
2023/03/19 12:31:21;;;;;;;2.20;1.90;;;26.80;78.90;;;;;;5035309;28;20558;-74
2023/03/19 12:34:11;;;;;;;2.70;2.45;;;27.60;76.40;;;;;;5027150;28;20176;-74
2023/03/19 12:36:47;;;;;;;2.10;1.95;;;27.10;68.30;;;;;;5043957;28;20200;-74
2023/03/19 12:39:20;;;;;;;2.13;2.00;;;25.60;71.70;;;;;;5029668;28;20207;-74
2023/03/19 12:41:48;;;;;;;2.03;1.83;;;24.30;76.20;;;;;;5030999;28;20224;-74
2023/03/19 12:44:31;;;;;;;2.88;2.28;;;23.60;83.50;;;;;;5039087;28;20462;-74
2023/03/19 12:47:01;;;;;;;2.30;2.10;;;22.70;78.00;;;;;;5031591;28;20685;-74
2023/03/19 12:49:45;;;;;;;2.17;1.77;;;21.70;79.60;;;;;;5035702;28;20180;-76
2023/03/19 12:52:39;;;;;;;3.22;1.40;;;21.20;90.60;;;;;;5043086;28;20196;-76
2023/03/19 12:55:11;;;;;;;2.10;1.90;;;21.20;94.40;;;;;;5033292;28;20177;-76
2023/03/19 12:57:47;;;;;;;2.08;1.90;;;21.30;94.30;;;;;;5037430;28;20206;-75
2023/03/19 13:00:23;;;;;;;2.42;2.10;;;21.40;91.70;;;;;;5031976;28;20199;-76
2023/03/19 13:03:03;;;;;;;2.00;1.90;;;21.60;88.20;;;;;;5031033;28;20183;-75